Аэропорт: Габала. Габала

ICAO: UBBQ

METAR:
2020-06-02 09:00:00
UBBQ 020900Z 36004KT 9999 NSC 32/14 Q1007 R16/CLRD// NOSIG RMK MT OP
METAR:
Информация по данной станции не доступна